createdAt,value
2023-04-10T00:01:16.262Z,102012.64
2023-04-10T00:04:02.798Z,102008.14
2023-04-10T00:06:34.912Z,102010.30
2023-04-10T00:09:03.253Z,102008.07
2023-04-10T00:11:31.401Z,102008.77
2023-04-10T00:14:01.312Z,102006.34
2023-04-10T00:16:32.314Z,102008.42
2023-04-10T00:19:01.997Z,102003.36
2023-04-10T00:21:41.702Z,102002.85
2023-04-10T00:24:12.080Z,102004.27
2023-04-10T00:26:46.563Z,102000.63
2023-04-10T00:29:14.632Z,101996.13
2023-04-10T00:31:50.148Z,102002.74
2023-04-10T00:34:18.355Z,102004.48
2023-04-10T00:36:48.015Z,102003.80
2023-04-10T00:39:16.068Z,102000.73
2023-04-10T00:41:49.073Z,102000.55
2023-04-10T00:44:17.824Z,101998.48
2023-04-10T00:46:45.985Z,101995.49
2023-04-10T00:49:14.674Z,101998.98
2023-04-10T00:51:43.785Z,101997.25
2023-04-10T00:54:13.452Z,101993.60
2023-04-10T00:56:41.583Z,101995.52
2023-04-10T00:59:09.697Z,101989.95
2023-04-10T01:01:38.147Z,101989.42
2023-04-10T01:04:13.410Z,101988.91
2023-04-10T01:06:44.982Z,101991.20
2023-04-10T01:09:17.912Z,101991.89
2023-04-10T01:11:50.701Z,101989.80
2023-04-10T01:14:30.682Z,101989.45
2023-04-10T01:17:05.125Z,101987.05
2023-04-10T01:19:42.529Z,101979.27
2023-04-10T01:22:15.567Z,101976.14
2023-04-10T01:24:56.580Z,101975.45
2023-04-10T01:27:24.877Z,101975.29
2023-04-10T01:29:54.152Z,101973.74
2023-04-10T01:32:22.522Z,101975.69
2023-04-10T01:34:52.499Z,101975.70
2023-04-10T01:37:22.591Z,101970.33
2023-04-10T01:39:51.636Z,101972.08
2023-04-10T01:42:20.098Z,101970.33
2023-04-10T01:44:48.750Z,101969.80
2023-04-10T01:47:18.096Z,101970.83
2023-04-10T01:49:48.394Z,101970.83
2023-04-10T01:52:16.708Z,101971.67
2023-04-10T01:54:49.233Z,101970.98
2023-04-10T01:57:23.750Z,101965.78
2023-04-10T01:59:58.323Z,101961.30
2023-04-10T02:02:31.033Z,101959.77
2023-04-10T02:04:59.762Z,101957.90
2023-04-10T02:07:52.127Z,101951.82
2023-04-10T02:10:43.578Z,101950.10
2023-04-10T02:13:12.304Z,101953.40
2023-04-10T02:15:41.961Z,101952.34
2023-04-10T02:18:10.828Z,101955.27
2023-04-10T02:20:38.874Z,101955.08
2023-04-10T02:23:08.114Z,101954.38
2023-04-10T02:25:36.676Z,101958.41
2023-04-10T02:28:05.399Z,101957.90
2023-04-10T02:30:34.029Z,101956.90
2023-04-10T02:33:02.254Z,101960.75
2023-04-10T02:35:32.101Z,101960.22
2023-04-10T02:38:01.011Z,101963.54
2023-04-10T02:40:30.418Z,101961.80
2023-04-10T02:43:10.492Z,101963.89
2023-04-10T02:45:39.134Z,101961.80
2023-04-10T02:48:13.290Z,101965.83
2023-04-10T02:50:46.552Z,101968.10
2023-04-10T02:53:15.746Z,101966.38
2023-04-10T02:55:44.154Z,101969.16
2023-04-10T02:58:14.893Z,101971.61
2023-04-10T03:00:53.472Z,101973.17
2023-04-10T03:03:38.324Z,101970.03
2023-04-10T03:06:08.769Z,101964.96
2023-04-10T03:08:38.241Z,101960.77
2023-04-10T03:11:08.080Z,101963.00
2023-04-10T03:13:44.627Z,101962.46
2023-04-10T03:16:12.855Z,101963.49
2023-04-10T03:18:42.090Z,101964.67
2023-04-10T03:21:10.741Z,101966.71
2023-04-10T03:23:39.258Z,101965.65
2023-04-10T03:26:07.384Z,101964.08
2023-04-10T03:28:39.961Z,101965.15
2023-04-10T03:31:12.672Z,101962.77
2023-04-10T03:33:42.194Z,101961.26
2023-04-10T03:36:11.638Z,101962.33
2023-04-10T03:38:40.709Z,101965.31
2023-04-10T03:41:12.030Z,101962.06
2023-04-10T03:43:41.345Z,101964.17
2023-04-10T03:46:09.730Z,101967.67
2023-04-10T03:48:41.989Z,101971.36
2023-04-10T03:51:11.065Z,101965.29
2023-04-10T03:53:39.307Z,101964.40
2023-04-10T03:56:11.078Z,101965.44
2023-04-10T03:58:41.389Z,101966.95
2023-04-10T04:01:10.118Z,101969.02
2023-04-10T04:03:52.648Z,101975.26
2023-04-10T04:06:48.822Z,101970.58
2023-04-10T04:09:28.210Z,101971.64
2023-04-10T04:12:20.878Z,101972.36
2023-04-10T04:15:09.991Z,101971.32
2023-04-10T04:17:54.540Z,101974.14
2023-04-10T04:20:41.628Z,101973.80
2023-04-10T04:23:37.292Z,101975.88
2023-04-10T04:26:26.473Z,101972.72
2023-04-10T04:29:14.577Z,101973.56
2023-04-10T04:31:48.757Z,101972.35
2023-04-10T04:34:41.890Z,101973.73
2023-04-10T04:37:28.924Z,101975.61
2023-04-10T04:40:17.077Z,101982.89
2023-04-10T04:43:14.643Z,101976.48
2023-04-10T04:45:58.602Z,101979.95
2023-04-10T04:48:51.987Z,101981.52
2023-04-10T04:51:25.969Z,101982.89
2023-04-10T04:54:09.049Z,101983.05
2023-04-10T04:56:42.876Z,101979.73
2023-04-10T04:59:19.744Z,101981.11
2023-04-10T05:02:06.958Z,101980.55
2023-04-10T05:04:53.593Z,101978.83
2023-04-10T05:07:40.772Z,101978.95
2023-04-10T05:10:25.879Z,101980.98
2023-04-10T05:13:13.528Z,101979.55
2023-04-10T05:15:49.216Z,101981.09
2023-04-10T05:18:41.400Z,101987.16
2023-04-10T05:21:39.653Z,101985.77
2023-04-10T05:24:43.941Z,101984.20
2023-04-10T05:27:25.056Z,101984.69
2023-04-10T05:29:57.281Z,101979.77
2023-04-10T05:33:03.998Z,101981.08
2023-04-10T05:35:41.125Z,101978.59
2023-04-10T05:38:36.005Z,101978.61
2023-04-10T05:41:19.660Z,101976.76
2023-04-10T05:44:05.748Z,101967.20
2023-04-10T05:47:01.138Z,101966.63
2023-04-10T05:49:55.493Z,101964.92
2023-04-10T05:52:42.336Z,101961.64
2023-04-10T05:55:26.699Z,101964.82
2023-04-10T05:58:16.549Z,101960.97
2023-04-10T06:01:17.207Z,101956.73
2023-04-10T06:04:05.734Z,101960.12
2023-04-10T06:06:37.039Z,101961.20
2023-04-10T06:09:05.386Z,101961.41
2023-04-10T06:11:34.127Z,101954.20
2023-04-10T06:14:02.320Z,101955.30
2023-04-10T06:16:37.261Z,101956.34
2023-04-10T06:19:06.740Z,101956.15
2023-04-10T06:21:34.903Z,101957.95
2023-04-10T06:24:05.147Z,101958.01
2023-04-10T06:26:33.501Z,101959.41
2023-04-10T06:29:01.851Z,101963.20
2023-04-10T06:31:30.600Z,101964.91
2023-04-10T06:33:58.936Z,101966.30
2023-04-10T06:36:27.788Z,101964.02
2023-04-10T06:39:02.983Z,101966.30
2023-04-10T06:41:32.152Z,101964.70
2023-04-10T06:44:08.809Z,101967.17
2023-04-10T06:46:37.301Z,101966.87
2023-04-10T06:49:06.357Z,101968.39
2023-04-10T06:51:35.557Z,101966.80
2023-04-10T06:54:03.625Z,101967.68
2023-04-10T06:56:34.475Z,101968.71
2023-04-10T06:59:05.585Z,101965.73
2023-04-10T07:01:34.092Z,101966.44
2023-04-10T07:04:02.752Z,101965.27
2023-04-10T07:06:31.712Z,101967.64
2023-04-10T07:08:59.988Z,101967.00
2023-04-10T07:11:28.654Z,101968.58
2023-04-10T07:13:58.669Z,101968.00
2023-04-10T07:16:27.747Z,101966.88
2023-04-10T07:18:57.297Z,101968.59
2023-04-10T07:21:27.496Z,101970.53
2023-04-10T07:23:57.317Z,101969.91
2023-04-10T07:26:26.030Z,101966.58
2023-04-10T07:28:54.531Z,101962.28
2023-04-10T07:31:24.205Z,101957.63
2023-04-10T07:33:52.410Z,101954.20
2023-04-10T07:36:20.502Z,101953.31
2023-04-10T07:38:49.991Z,101949.11
2023-04-10T07:41:18.080Z,101947.26
2023-04-10T07:43:51.886Z,101951.13
2023-04-10T07:46:20.560Z,101952.46
2023-04-10T07:48:49.714Z,101952.02
2023-04-10T07:51:17.870Z,101954.27
2023-04-10T07:53:46.325Z,101952.18
2023-04-10T07:56:17.570Z,101959.20
2023-04-10T07:58:46.123Z,101959.36
2023-04-10T08:01:14.456Z,101955.19
2023-04-10T08:03:43.944Z,101957.30
2023-04-10T08:06:12.947Z,101958.19
2023-04-10T08:08:41.303Z,101953.95
2023-04-10T08:11:29.056Z,101957.77
2023-04-10T08:13:59.535Z,101961.85
2023-04-10T08:16:28.203Z,101959.15
2023-04-10T08:18:58.992Z,101956.40
2023-04-10T08:21:27.984Z,101960.64
2023-04-10T08:23:57.064Z,101956.09
2023-04-10T08:26:25.702Z,101947.40
2023-04-10T08:28:56.408Z,101948.30
2023-04-10T08:31:25.587Z,101943.42
2023-04-10T08:33:53.966Z,101940.54
2023-04-10T08:36:24.307Z,101941.21
2023-04-10T08:38:54.136Z,101939.91
2023-04-10T08:41:22.272Z,101931.52
2023-04-10T08:43:51.136Z,101930.98
2023-04-10T08:46:20.281Z,101938.90
2023-04-10T08:49:01.913Z,101940.98
2023-04-10T08:51:38.223Z,101936.95
2023-04-10T08:54:07.154Z,101932.98
2023-04-10T08:56:40.709Z,101929.62
2023-04-10T08:59:09.290Z,101928.42
2023-04-10T09:01:37.507Z,101927.63
2023-04-10T09:04:05.669Z,101921.09
2023-04-10T09:06:34.018Z,101917.84
2023-04-10T09:09:10.608Z,101918.92
2023-04-10T09:11:55.441Z,101920.46
2023-04-10T09:14:30.353Z,101920.58
2023-04-10T09:17:10.919Z,101921.73
2023-04-10T09:19:39.946Z,101914.08
2023-04-10T09:22:08.645Z,101918.64
2023-04-10T09:24:43.105Z,101911.38
2023-04-10T09:27:11.427Z,101906.33
2023-04-10T09:29:46.082Z,101910.58
2023-04-10T09:32:35.448Z,101916.88
2023-04-10T09:35:05.166Z,101910.23
2023-04-10T09:37:34.013Z,101910.66
2023-04-10T09:54:35.596Z,101908.23
2023-04-10T10:01:49.659Z,101905.91
2023-04-10T10:04:17.022Z,101901.88
2023-04-10T10:06:44.568Z,101901.17
2023-04-10T10:09:12.138Z,101899.30
2023-04-10T10:11:40.394Z,101895.07
2023-04-10T10:14:11.776Z,101896.15
2023-04-10T10:16:43.645Z,101896.88
2023-04-10T10:19:41.064Z,101899.98
2023-04-10T10:22:09.342Z,101891.98
2023-04-10T10:24:37.312Z,101896.77
2023-04-10T10:27:04.585Z,101898.95
2023-04-10T10:29:32.335Z,101894.21
2023-04-10T10:32:02.481Z,101889.75
2023-04-10T10:34:30.417Z,101887.05
2023-04-10T10:36:57.995Z,101887.34
2023-04-10T10:39:36.189Z,101889.61
2023-04-10T10:42:13.984Z,101891.61
2023-04-10T10:45:09.908Z,101889.17
2023-04-10T10:47:44.710Z,101891.51
2023-04-10T10:50:13.693Z,101891.29
2023-04-10T10:52:49.271Z,101890.48
2023-04-10T10:55:27.174Z,101887.52
2023-04-10T10:57:56.558Z,101885.73
2023-04-10T11:00:24.855Z,101881.27
2023-04-10T11:03:08.407Z,101883.16
2023-04-10T11:05:53.886Z,101880.55
2023-04-10T11:08:33.443Z,101876.45
2023-04-10T11:11:06.905Z,101875.20
2023-04-10T11:13:36.645Z,101874.48
2023-04-10T11:16:04.951Z,101876.39
2023-04-10T11:18:56.136Z,101879.42
2023-04-10T11:21:31.140Z,101869.83
2023-04-10T11:24:03.617Z,101871.79
2023-04-10T11:26:41.021Z,101867.40
2023-04-10T11:29:17.586Z,101866.18
2023-04-10T11:31:58.424Z,101853.61
2023-04-10T11:34:30.506Z,101856.84
2023-04-10T11:36:57.677Z,101849.92
2023-04-10T11:39:25.955Z,101854.14
2023-04-10T11:41:53.804Z,101850.55
2023-04-10T11:44:29.482Z,101855.08
2023-04-10T11:46:57.657Z,101850.77
2023-04-10T11:49:34.089Z,101846.73
2023-04-10T11:52:01.412Z,101838.55
2023-04-10T11:54:28.996Z,101833.59
2023-04-10T11:57:11.299Z,101833.32
2023-04-10T11:59:38.612Z,101826.67
2023-04-10T12:02:07.164Z,101826.10
2023-04-10T12:04:35.199Z,101821.48
2023-04-10T12:07:04.302Z,101821.52
2023-04-10T12:09:32.035Z,101816.45
2023-04-10T12:12:07.853Z,101813.42
2023-04-10T12:14:36.443Z,101803.83
2023-04-10T12:17:04.269Z,101801.18
2023-04-10T12:19:33.024Z,101797.63
2023-04-10T12:22:01.644Z,101797.02
2023-04-10T12:24:47.222Z,101794.20
2023-04-10T12:27:19.188Z,101794.28
2023-04-10T12:29:47.360Z,101793.59
2023-04-10T12:32:14.518Z,101792.40
2023-04-10T12:34:42.476Z,101787.86
2023-04-10T12:37:09.734Z,101785.48
2023-04-10T12:39:37.800Z,101781.46
2023-04-10T12:42:11.297Z,101779.73
2023-04-10T12:44:59.362Z,101777.39
2023-04-10T12:47:29.009Z,101778.80
2023-04-10T12:50:07.856Z,101775.73
2023-04-10T12:52:35.826Z,101768.12
2023-04-10T12:55:23.674Z,101760.52
2023-04-10T12:57:51.552Z,101754.48
2023-04-10T13:00:18.973Z,101753.98
2023-04-10T13:02:47.816Z,101749.85
2023-04-10T13:05:17.908Z,101739.59
2023-04-10T13:07:45.671Z,101733.02
2023-04-10T13:10:12.908Z,101726.48
2023-04-10T13:12:44.569Z,101726.88
2023-04-10T13:15:11.858Z,101725.60
2023-04-10T13:17:40.546Z,101720.48
2023-04-10T13:20:15.451Z,101714.28
2023-04-10T13:22:44.840Z,101707.36
2023-04-10T13:25:12.106Z,101705.39
2023-04-10T13:27:39.140Z,101704.23
2023-04-10T13:30:07.412Z,101701.33
2023-04-10T13:32:34.927Z,101700.52
2023-04-10T13:35:03.279Z,101700.95
2023-04-10T13:37:30.811Z,101696.21
2023-04-10T13:39:57.799Z,101690.23
2023-04-10T13:42:25.007Z,101687.34
2023-04-10T13:44:52.260Z,101681.72
2023-04-10T13:47:19.409Z,101680.63
2023-04-10T13:49:47.150Z,101675.90
2023-04-10T13:52:14.120Z,101669.17
2023-04-10T13:54:43.520Z,101663.86
2023-04-10T13:57:10.702Z,101667.21
2023-04-10T13:59:41.408Z,101666.88
2023-04-10T14:02:09.226Z,101667.25
2023-04-10T14:04:37.650Z,101666.67
2023-04-10T14:07:04.590Z,101667.75
2023-04-10T14:09:31.844Z,101669.23
2023-04-10T14:12:01.144Z,101669.48
2023-04-10T14:14:29.016Z,101669.23
2023-04-10T14:16:56.303Z,101669.51
2023-04-10T14:19:23.555Z,101676.46
2023-04-10T14:21:50.558Z,101679.19
2023-04-10T14:24:17.601Z,101681.44
2023-04-10T14:26:44.960Z,101683.92
2023-04-10T14:29:13.480Z,101682.20
2023-04-10T14:31:54.893Z,101682.67
2023-04-10T14:34:24.837Z,101681.07
2023-04-10T14:36:55.474Z,101677.29
2023-04-10T14:39:25.592Z,101676.16
2023-04-10T14:41:52.574Z,101680.14
2023-04-10T14:44:19.783Z,101684.73
2023-04-10T14:46:47.479Z,101684.13
2023-04-10T14:49:14.821Z,101684.36
2023-04-10T14:51:47.990Z,101683.14
2023-04-10T14:54:21.386Z,101680.13
2023-04-10T14:56:48.945Z,101676.46
2023-04-10T14:59:18.870Z,101672.55
2023-04-10T15:01:46.134Z,101665.95
2023-04-10T15:04:18.167Z,101661.38
2023-04-10T15:06:46.050Z,101659.61
2023-04-10T15:09:13.811Z,101660.30
2023-04-10T15:11:41.775Z,101656.60
2023-04-10T15:14:09.026Z,101653.41
2023-04-10T15:16:36.305Z,101654.25
2023-04-10T15:19:04.044Z,101650.02
2023-04-10T15:21:32.111Z,101647.02
2023-04-10T15:24:00.592Z,101655.77
2023-04-10T15:26:30.314Z,101650.44
2023-04-10T15:28:57.863Z,101646.60
2023-04-10T15:31:24.952Z,101640.14
2023-04-10T15:33:52.690Z,101640.55
2023-04-10T15:36:20.023Z,101633.58
2023-04-10T15:38:48.734Z,101637.33
2023-04-10T15:41:17.399Z,101637.05
2023-04-10T15:43:44.973Z,101623.88
2023-04-10T15:46:18.671Z,101616.10
2023-04-10T15:48:51.644Z,101610.77
2023-04-10T15:51:24.526Z,101608.60
2023-04-10T15:53:51.864Z,101608.30
2023-04-10T15:56:19.138Z,101600.77
2023-04-10T15:58:51.331Z,101597.92
2023-04-10T16:01:18.394Z,101603.28
2023-04-10T16:03:54.389Z,101603.69
2023-04-10T16:06:25.448Z,101598.17
2023-04-10T16:08:52.735Z,101599.23
2023-04-10T16:11:24.074Z,101600.33
2023-04-10T16:13:51.911Z,101599.02
2023-04-10T16:16:19.215Z,101598.97
2023-04-10T16:18:46.822Z,101596.29
2023-04-10T16:21:15.715Z,101589.77
2023-04-10T16:23:43.244Z,101583.86
2023-04-10T16:26:15.236Z,101577.38
2023-04-10T16:28:42.692Z,101580.30
2023-04-10T16:31:10.004Z,101573.52
2023-04-10T16:33:41.291Z,101573.84
2023-04-10T16:36:09.161Z,101570.10
2023-04-10T16:38:36.240Z,101568.61
2023-04-10T16:41:04.992Z,101560.10
2023-04-10T16:43:32.658Z,101555.98
2023-04-10T16:46:00.983Z,101549.63
2023-04-10T16:48:31.045Z,101547.29
2023-04-10T16:51:05.159Z,101545.46
2023-04-10T16:53:35.311Z,101541.73
2023-04-10T16:56:04.453Z,101539.73
2023-04-10T16:58:40.432Z,101537.55
2023-04-10T17:01:20.422Z,101534.33
2023-04-10T17:03:48.033Z,101534.02
2023-04-10T17:06:15.604Z,101533.02
2023-04-10T17:08:44.494Z,101533.92
2023-04-10T17:11:12.275Z,101534.48
2023-04-10T17:13:42.173Z,101529.67
2023-04-10T17:16:10.960Z,101528.87
2023-04-10T17:18:40.163Z,101525.92
2023-04-10T17:21:11.821Z,101526.86
2023-04-10T17:23:40.194Z,101526.36
2023-04-10T17:26:13.488Z,101523.79
2023-04-10T17:28:44.424Z,101526.05
2023-04-10T17:31:15.977Z,101529.70
2023-04-10T17:33:43.581Z,101532.64
2023-04-10T17:36:11.719Z,101535.42
2023-04-10T17:38:41.646Z,101536.25
2023-04-10T17:41:08.989Z,101533.59
2023-04-10T17:43:38.178Z,101539.17
2023-04-10T17:46:05.857Z,101534.95
2023-04-10T17:48:35.639Z,101530.90
2023-04-10T17:51:06.922Z,101529.14
2023-04-10T17:53:33.878Z,101526.13
2023-04-10T17:56:01.198Z,101528.23
2023-04-10T17:58:29.363Z,101520.05
2023-04-10T18:00:58.583Z,101517.91
2023-04-10T18:03:27.727Z,101516.52
2023-04-10T18:05:55.125Z,101515.08
2023-04-10T18:08:23.489Z,101514.02
2023-04-10T18:10:50.950Z,101509.67
2023-04-10T18:13:18.299Z,101507.77
2023-04-10T18:15:45.965Z,101503.39
2023-04-10T18:18:14.846Z,101500.63
2023-04-10T18:20:42.206Z,101497.96
2023-04-10T18:23:09.663Z,101499.85
2023-04-10T18:25:37.039Z,101499.84
2023-04-10T18:28:14.433Z,101495.13
2023-04-10T18:30:43.417Z,101491.26
2023-04-10T18:33:11.510Z,101489.16
2023-04-10T18:35:41.844Z,101488.63
2023-04-10T18:38:09.148Z,101483.91
2023-04-10T18:40:37.639Z,101481.61
2023-04-10T18:43:04.895Z,101477.14
2023-04-10T18:45:33.898Z,101476.77
2023-04-10T18:48:01.090Z,101469.22
2023-04-10T18:50:28.276Z,101468.86
2023-04-10T18:53:01.440Z,101467.81
2023-04-10T18:55:29.138Z,101465.77
2023-04-10T18:57:58.840Z,101464.52
2023-04-10T19:00:27.114Z,101466.26
2023-04-10T19:02:56.059Z,101464.54
2023-04-10T19:05:23.358Z,101462.95
2023-04-10T19:08:03.016Z,101461.54
2023-04-10T19:10:32.108Z,101458.54
2023-04-10T19:13:08.586Z,101457.23
2023-04-10T19:15:43.594Z,101452.69
2023-04-10T19:18:15.052Z,101452.15
2023-04-10T19:20:50.297Z,101446.00
2023-04-10T19:23:24.316Z,101444.77
2023-04-10T19:25:53.540Z,101443.52
2023-04-10T19:28:20.748Z,101439.17
2023-04-10T19:31:08.441Z,101435.16
2023-04-10T19:33:38.699Z,101425.73
2023-04-10T19:36:08.166Z,101422.06
2023-04-10T19:38:35.960Z,101421.02
2023-04-10T19:41:03.030Z,101416.67
2023-04-10T19:43:36.077Z,101411.08
2023-04-10T19:46:17.197Z,101409.89
2023-04-10T19:48:45.447Z,101406.08
2023-04-10T19:51:13.016Z,101398.98
2023-04-10T19:53:41.587Z,101393.05
2023-04-10T19:56:08.839Z,101394.23
2023-04-10T19:58:40.417Z,101390.23
2023-04-10T20:01:09.795Z,101391.81
2023-04-10T20:03:38.737Z,101391.95
2023-04-10T20:06:09.739Z,101386.02
2023-04-10T20:08:37.321Z,101378.13
2023-04-10T20:11:05.761Z,101375.91
2023-04-10T20:13:35.688Z,101369.10
2023-04-10T20:16:07.123Z,101361.97
2023-04-10T20:18:34.284Z,101359.35
2023-04-10T20:21:01.581Z,101351.86
2023-04-10T20:23:28.985Z,101349.93
2023-04-10T20:25:56.154Z,101347.52
2023-04-10T20:28:23.281Z,101343.84
2023-04-10T20:30:50.533Z,101339.15
2023-04-10T20:33:17.599Z,101337.94
2023-04-10T20:35:45.375Z,101336.89
2023-04-10T20:38:12.600Z,101331.52
2023-04-10T20:40:39.744Z,101323.70
2023-04-10T20:43:11.603Z,101320.80
2023-04-10T20:45:40.195Z,101316.50
2023-04-10T20:48:08.098Z,101314.09
2023-04-10T20:50:38.938Z,101311.14
2023-04-10T20:53:06.134Z,101307.64
2023-04-10T20:55:39.431Z,101304.87
2023-04-10T20:58:07.097Z,101297.55
2023-04-10T21:00:35.278Z,101298.04
2023-04-10T21:03:03.374Z,101296.30
2023-04-10T21:05:30.540Z,101294.60
2023-04-10T21:07:59.178Z,101292.00
2023-04-10T21:10:26.333Z,101287.46
2023-04-10T21:12:53.372Z,101285.37
2023-04-10T21:15:21.996Z,101279.25
2023-04-10T21:17:49.146Z,101268.23
2023-04-10T21:20:16.560Z,101268.73
2023-04-10T21:22:43.929Z,101268.17
2023-04-10T21:25:11.067Z,101266.77
2023-04-10T21:27:38.629Z,101265.23
2023-04-10T21:30:06.837Z,101262.42
2023-04-10T21:32:34.271Z,101259.46
2023-04-10T21:35:02.823Z,101260.33
2023-04-10T21:37:30.600Z,101259.35
2023-04-10T21:39:57.861Z,101250.09
2023-04-10T21:42:25.421Z,101246.60
2023-04-10T21:44:55.645Z,101247.95
2023-04-10T21:47:22.781Z,101243.61
2023-04-10T21:49:50.476Z,101241.21
2023-04-10T21:52:19.234Z,101239.09
2023-04-10T21:54:46.590Z,101235.39
2023-04-10T21:57:13.841Z,101230.66
2023-04-10T21:59:40.985Z,101223.45
2023-04-10T22:02:10.246Z,101219.02
2023-04-10T22:04:41.462Z,101214.09
2023-04-10T22:07:15.028Z,101209.82
2023-04-10T22:09:42.190Z,101206.98
2023-04-10T22:12:09.327Z,101202.92
2023-04-10T22:14:37.719Z,101200.30
2023-04-10T22:17:04.935Z,101191.91
2023-04-10T22:19:32.413Z,101185.76
2023-04-10T22:22:00.545Z,101182.42
2023-04-10T22:24:27.636Z,101177.85
2023-04-10T22:26:54.785Z,101170.73
2023-04-10T22:29:21.731Z,101165.50
2023-04-10T22:31:49.398Z,101155.95
2023-04-10T22:34:16.649Z,101150.73
2023-04-10T22:36:44.103Z,101145.74
2023-04-10T22:39:11.161Z,101138.76
2023-04-10T22:41:39.013Z,101132.84
2023-04-10T22:44:07.186Z,101125.15
2023-04-10T22:46:40.087Z,101116.83
2023-04-10T22:49:07.459Z,101114.96
2023-04-10T22:51:34.473Z,101107.50
2023-04-10T22:54:01.726Z,101098.80
2023-04-10T22:56:29.082Z,101099.67
2023-04-10T22:59:00.943Z,101098.63
2023-04-10T23:01:28.833Z,101096.20
2023-04-10T23:03:56.121Z,101086.99
2023-04-10T23:06:23.713Z,101082.14
2023-04-10T23:08:51.600Z,101083.54
2023-04-10T23:11:18.636Z,101078.30
2023-04-10T23:13:48.437Z,101080.40
2023-04-10T23:16:15.444Z,101069.81
2023-04-10T23:18:42.846Z,101065.14
2023-04-10T23:21:10.331Z,101059.58
2023-04-10T23:23:37.900Z,101054.21
2023-04-10T23:26:05.521Z,101054.41
2023-04-10T23:28:32.773Z,101048.84
2023-04-10T23:31:00.080Z,101043.65
2023-04-10T23:33:27.585Z,101037.23
2023-04-10T23:35:54.969Z,101033.23
2023-04-10T23:38:23.107Z,101021.40
2023-04-10T23:40:52.020Z,101020.67
2023-04-10T23:46:37.424Z,101024.02
2023-04-10T23:49:07.212Z,101030.35
2023-04-10T23:51:35.690Z,101020.57
2023-04-10T23:54:05.014Z,101023.09
2023-04-10T23:56:33.689Z,101019.39
2023-04-10T23:59:02.870Z,101015.52
